Moorhead State University, Minnesota
Current Conditions -  °F | °C
As of 5:53 AM on Sunday 21 Dec 2014 (Local Time) from KFAR Reporting Station
Haze Haze  
Wind Chill: 23°   Ceiling: 900
Heat Index: 32°   Visibility: 6mi
Dew Point: 29°   Wind: 12mph
Humidity: 88%   Direction: 170°S
Pressure: 29.77"   Gusts: NA
Location:  46.8656°N, 96.7581°W
Report Text: KFAR 211153Z 17010KT 6SM BR OVC009 00/M02 A2977 RMK AO2 SLP093 T00001017 10000 20000 56018
Loading
Personal Weather Stations






























Interactive Weather Map New forecast layout! Learn more

10-Day Weather Forecast

Advertisements
Track Severe Weather on mobile